Time;durP1;ratioP1;P1;durP2;ratioP2;P2;SDS_P1;SDS_P2;PMS_P1;PMS_P2;Temp;Humidity;BMP_temperature;BMP_pressure;BME280_temperature;BME280_humidity;BME280_pressure;Samples;Min_cycle;Max_cycle;Signal;HPM_P1;HPM_P2
2022/04/27 00:01:49;;;;;;;2.00;0.88;;;;;;;18.72;59.17;100567.53;4969770;28;20050;-45
2022/04/27 00:04:14;;;;;;;2.25;0.85;;;;;;;18.72;59.07;100567.53;4969866;28;20027;-44
2022/04/27 00:06:40;;;;;;;2.13;0.80;;;;;;;18.72;59.10;100564.91;4969876;28;20113;-42
2022/04/27 00:09:06;;;;;;;1.98;0.85;;;;;;;18.71;59.05;100550.88;4968009;28;20249;-45
2022/04/27 00:11:31;;;;;;;2.15;0.90;;;;;;;18.70;59.06;100551.91;4968988;28;20027;-43
2022/04/27 00:13:58;;;;;;;1.65;0.75;;;;;;;18.70;59.00;100546.63;4969443;28;20035;-45
2022/04/27 00:16:24;;;;;;;2.30;0.98;;;;;;;18.70;59.11;100541.34;4969171;28;20533;-43
2022/04/27 00:18:49;;;;;;;2.45;0.77;;;;;;;18.70;59.08;100545.81;4969242;28;20115;-44
2022/04/27 00:21:15;;;;;;;2.15;0.70;;;;;;;18.69;59.10;100542.34;4985371;28;20121;-44
2022/04/27 00:23:40;;;;;;;2.00;0.88;;;;;;;18.68;59.10;100546.00;4976897;28;20030;-43
2022/04/27 00:26:06;;;;;;;3.15;0.60;;;;;;;18.68;59.14;100542.53;4971678;28;20085;-45
2022/04/27 00:28:32;;;;;;;1.65;0.80;;;;;;;18.68;59.09;100547.81;4966867;28;20045;-43
2022/04/27 00:30:58;;;;;;;3.05;0.68;;;;;;;18.68;59.20;100543.38;4986614;28;20034;-42
2022/04/27 00:33:23;;;;;;;2.95;0.77;;;;;;;18.67;59.21;100544.38;4970173;28;20052;-43
2022/04/27 00:35:48;;;;;;;2.50;0.52;;;;;;;18.68;59.32;100538.09;4970289;28;20033;-42
2022/04/27 00:38:14;;;;;;;2.60;0.60;;;;;;;18.69;59.14;100523.88;4969648;28;20612;-43
2022/04/27 00:40:39;;;;;;;1.40;0.50;;;;;;;18.70;58.93;100525.50;4989544;28;20030;-43
2022/04/27 00:43:05;;;;;;;2.47;0.50;;;;;;;18.70;59.06;100514.94;4974804;28;20030;-42
2022/04/27 00:45:30;;;;;;;2.05;0.60;;;;;;;18.70;58.91;100514.94;4970053;28;20031;-42
2022/04/27 00:47:56;;;;;;;2.25;0.50;;;;;;;18.70;58.97;100511.50;4968073;28;20406;-45
2022/04/27 00:50:21;;;;;;;1.38;0.50;;;;;;;18.70;58.81;100514.94;4968721;28;20035;-43
2022/04/27 00:52:47;;;;;;;2.15;0.60;;;;;;;18.72;59.00;100520.84;4968244;28;20046;-42
2022/04/27 00:55:13;;;;;;;0.80;0.38;;;;;;;18.72;58.97;100518.22;4985183;28;20379;-43
2022/04/27 00:57:39;;;;;;;1.40;0.40;;;;;;;18.72;58.50;100526.13;4969058;28;20042;-45
2022/04/27 01:00:07;;;;;;;2.20;0.40;;;;;;;18.73;58.82;100527.75;4969514;28;20034;-44
2022/04/27 01:02:34;;;;;;;1.55;0.60;;;;;;;18.72;58.83;100536.69;4969724;28;20069;-45
2022/04/27 01:05:00;;;;;;;1.33;0.60;;;;;;;18.71;58.97;100537.69;4968924;28;20034;-43
2022/04/27 01:07:26;;;;;;;1.25;0.50;;;;;;;18.71;58.74;100527.13;4966952;28;20033;-43
2022/04/27 01:09:51;;;;;;;2.38;0.70;;;;;;;18.72;58.91;100526.13;4967236;28;20055;-43
2022/04/27 01:12:18;;;;;;;1.17;0.50;;;;;;;18.70;58.83;100522.88;4968558;28;20042;-44
2022/04/27 01:14:47;;;;;;;1.17;0.50;;;;;;;18.70;58.72;100524.69;4968393;28;20474;-44
2022/04/27 01:17:13;;;;;;;0.82;0.40;;;;;;;18.70;58.82;100516.78;4967433;28;20038;-42
2022/04/27 01:19:39;;;;;;;1.63;0.52;;;;;;;18.69;58.84;100517.78;4970167;28;20077;-43
2022/04/27 01:22:05;;;;;;;1.20;0.43;;;;;;;18.68;58.71;100519.59;4980420;28;20459;-45
2022/04/27 01:24:30;;;;;;;1.67;0.43;;;;;;;18.67;58.61;100509.25;4971017;28;20034;-42
2022/04/27 01:26:57;;;;;;;1.88;0.50;;;;;;;18.68;58.67;100510.88;4967989;28;20034;-43
2022/04/27 01:29:23;;;;;;;0.95;0.40;;;;;;;18.67;58.66;100512.69;4965536;28;20033;-44
2022/04/27 01:31:49;;;;;;;0.70;0.40;;;;;;;18.67;58.73;100514.53;4968879;28;20391;-44
2022/04/27 01:34:15;;;;;;;1.10;0.50;;;;;;;18.66;58.89;100523.47;4968193;28;20027;-44
2022/04/27 01:36:40;;;;;;;3.45;0.98;;;;;;;18.66;58.84;100532.19;4968806;28;20045;-44
2022/04/27 01:39:07;;;;;;;0.88;0.32;;;;;;;18.66;58.91;100531.38;4967629;28;20065;-43
2022/04/27 01:41:33;;;;;;;1.60;0.50;;;;;;;18.65;58.69;100533.19;4967656;28;20030;-42
2022/04/27 01:43:59;;;;;;;1.05;0.57;;;;;;;18.64;58.81;100534.19;4968074;28;20030;-42
2022/04/27 01:46:25;;;;;;;1.92;0.52;;;;;;;18.64;58.82;100542.13;4967502;28;20031;-44
2022/04/27 01:48:51;;;;;;;2.03;0.40;;;;;;;18.63;58.80;100540.50;4968896;28;20546;-42
2022/04/27 01:54:15;;;;;;;0.98;0.40;;;;;;;18.63;58.74;100545.75;4968386;28;20044;-45
2022/04/27 01:54:15;;;;;;;1.55;0.40;;;;;;;18.61;58.63;100547.78;4966769;28;20038;-43
2022/04/27 01:56:49;;;;;;;1.27;0.40;;;;;;;18.62;58.76;100552.06;4976687;28;20047;-43
2022/04/27 01:59:15;;;;;;;0.95;0.40;;;;;;;18.62;58.75;100559.97;4968047;28;20099;-43
2022/04/27 02:01:41;;;;;;;1.15;0.50;;;;;;;18.62;58.66;100561.78;4967594;28;20097;-43
2022/04/27 02:04:07;;;;;;;1.20;0.40;;;;;;;18.61;58.64;100563.63;4968819;28;20034;-43
2022/04/27 02:06:36;;;;;;;0.90;0.60;;;;;;;18.62;58.64;100562.59;4978335;28;20818;-44
2022/04/27 02:09:04;;;;;;;1.13;0.38;;;;;;;18.62;58.73;100559.97;4966363;28;20062;-43
2022/04/27 02:11:29;;;;;;;1.00;0.30;;;;;;;18.62;58.55;100553.88;5449042;22;20055;-42
2022/04/27 02:13:55;;;;;;;2.28;0.40;;;;;;;18.63;58.70;100558.97;4987814;28;20473;-42
2022/04/27 02:16:24;;;;;;;1.77;0.30;;;;;;;18.62;58.58;100556.53;4987359;28;20456;-43
2022/04/27 02:18:50;;;;;;;1.60;0.40;;;;;;;18.63;58.42;100558.16;4988094;28;20353;-44
2022/04/27 02:21:16;;;;;;;1.48;0.40;;;;;;;18.61;58.46;100555.69;4987727;28;20461;-42
2022/04/27 02:23:42;;;;;;;0.88;0.30;;;;;;;18.61;58.39;100566.25;4987858;28;20045;-43
2022/04/27 02:26:07;;;;;;;1.23;0.30;;;;;;;18.61;58.36;100557.53;4987577;28;20034;-44
2022/04/27 02:28:33;;;;;;;0.95;0.40;;;;;;;18.60;58.37;100562.00;4987628;28;20600;-43
2022/04/27 02:30:58;;;;;;;1.48;0.40;;;;;;;18.60;58.37;100558.50;4987619;28;20034;-42
2022/04/27 02:33:24;;;;;;;1.52;0.60;;;;;;;18.60;58.24;100567.25;4987678;28;20372;-43
2022/04/27 02:35:50;;;;;;;1.05;0.30;;;;;;;18.61;58.42;100565.44;4987435;28;20030;-43
2022/04/27 02:38:15;;;;;;;1.25;0.40;;;;;;;18.60;58.43;100566.41;4987264;28;20110;-42
2022/04/27 02:40:40;;;;;;;1.25;0.30;;;;;;;18.58;58.35;100561.34;4987486;28;20030;-42
2022/04/27 02:43:06;;;;;;;1.08;0.40;;;;;;;18.57;58.45;100568.44;4987542;28;20070;-42
2022/04/27 02:45:31;;;;;;;0.93;0.40;;;;;;;18.58;58.39;100572.69;4986066;28;20041;-42
2022/04/27 02:47:57;;;;;;;0.98;0.30;;;;;;;18.58;58.45;100574.53;4987335;28;20038;-42
2022/04/27 02:53:06;;;;;;;1.33;0.32;;;;;;;18.60;58.37;100577.81;4987457;28;20038;-43
2022/04/27 02:55:31;;;;;;;1.25;0.50;;;;;;;18.59;58.37;100581.44;4987282;28;20053;-42
2022/04/27 02:57:57;;;;;;;0.82;0.30;;;;;;;18.61;58.26;100590.00;4986958;28;20483;-43
2022/04/27 03:00:22;;;;;;;0.68;0.20;;;;;;;18.61;58.46;100590.00;4986703;28;20030;-43
2022/04/27 03:02:47;;;;;;;0.68;0.25;;;;;;;18.61;58.46;100584.72;4987100;28;20050;-42
2022/04/27 03:05:13;;;;;;;0.68;0.22;;;;;;;18.63;58.41;100597.72;4986968;28;20034;-42
2022/04/27 03:07:38;;;;;;;0.40;0.20;;;;;;;18.63;58.37;100593.25;4986753;28;20500;-42
2022/04/27 03:10:05;;;;;;;0.73;0.22;;;;;;;18.64;58.37;100596.72;4986984;28;20294;-43
2022/04/27 03:12:30;;;;;;;0.63;0.30;;;;;;;18.64;58.20;100596.72;4985742;28;20046;-43
2022/04/27 03:14:55;;;;;;;0.77;0.30;;;;;;;18.63;58.13;100603.81;4986268;28;20480;-43
2022/04/27 03:17:21;;;;;;;1.10;0.20;;;;;;;18.63;58.03;100600.38;4987134;28;20030;-43
2022/04/27 03:19:47;;;;;;;0.38;0.13;;;;;;;18.63;58.17;100603.81;4986542;28;20038;-43
2022/04/27 03:22:12;;;;;;;0.88;0.20;;;;;;;18.62;58.02;100607.47;4986479;28;20129;-44
2022/04/27 03:24:38;;;;;;;0.63;0.20;;;;;;;18.62;57.75;100611.94;4986780;28;20034;-42
2022/04/27 03:27:05;;;;;;;0.55;0.20;;;;;;;18.62;57.86;100618.03;4986994;28;20038;-42
2022/04/27 03:29:30;;;;;;;0.93;0.30;;;;;;;18.62;57.95;100627.75;4986852;28;20084;-44
2022/04/27 03:31:56;;;;;;;1.20;0.20;;;;;;;18.60;57.72;100630.59;4986849;28;20042;-44
2022/04/27 03:34:21;;;;;;;0.63;0.20;;;;;;;18.59;57.89;100628.94;4987241;28;20094;-42
2022/04/27 03:36:46;;;;;;;0.47;0.20;;;;;;;18.60;58.05;100635.88;4986480;28;20139;-42
2022/04/27 03:39:12;;;;;;;0.70;0.30;;;;;;;18.58;57.97;100627.31;4986636;28;20023;-43
2022/04/27 03:41:37;;;;;;;0.60;0.30;;;;;;;18.58;58.05;100625.47;4986321;28;20046;-43
2022/04/27 03:44:03;;;;;;;0.68;0.20;;;;;;;18.59;57.98;100628.94;4986581;28;20026;-42
2022/04/27 03:46:28;;;;;;;0.40;0.20;;;;;;;18.57;57.95;100626.47;4986604;28;20101;-43
2022/04/27 03:48:54;;;;;;;0.50;0.30;;;;;;;18.57;58.07;100626.47;4986889;28;20022;-44
2022/04/27 03:51:19;;;;;;;0.40;0.20;;;;;;;18.58;57.98;100622.03;4986189;28;20038;-44
2022/04/27 03:53:45;;;;;;;1.60;0.20;;;;;;;18.57;57.94;100628.31;4986806;28;20088;-42
2022/04/27 03:56:10;;;;;;;4.22;0.20;;;;;;;18.57;57.97;100637.03;4986364;28;20088;-42
2022/04/27 03:58:36;;;;;;;0.50;0.20;;;;;;;18.56;57.93;100632.75;4986620;28;20485;-42
2022/04/27 04:01:01;;;;;;;0.60;0.20;;;;;;;18.56;57.91;100640.69;4986290;28;20033;-42
2022/04/27 04:03:27;;;;;;;0.50;0.20;;;;;;;18.56;57.82;100634.59;4989879;28;20045;-42
2022/04/27 04:05:53;;;;;;;1.40;0.20;;;;;;;18.55;57.75;100640.88;4989552;28;20072;-43
2022/04/27 04:08:18;;;;;;;0.60;0.20;;;;;;;18.54;57.78;100639.25;4990026;28;20038;-43
2022/04/27 04:10:45;;;;;;;0.63;0.20;;;;;;;18.55;57.82;100643.50;4989761;28;20036;-45
2022/04/27 04:13:11;;;;;;;0.30;0.20;;;;;;;18.56;57.76;100637.22;4989596;28;20078;-43
2022/04/27 04:15:37;;;;;;;0.50;0.10;;;;;;;18.55;57.63;100640.88;4989649;28;20057;-42
2022/04/27 04:18:06;;;;;;;1.30;0.20;;;;;;;18.56;57.65;100637.22;4988323;28;20037;-42
2022/04/27 04:20:33;;;;;;;0.28;0.10;;;;;;;18.55;57.65;100651.44;4990215;28;20080;-43
2022/04/27 04:22:58;;;;;;;0.25;0.10;;;;;;;18.54;57.44;100653.25;4989476;28;20385;-44
2022/04/27 04:30:52;;;;;;;0.60;0.17;;;;;;;18.53;57.47;100667.44;4989803;28;20053;-43
2022/04/27 04:33:18;;;;;;;1.40;0.20;;;;;;;18.53;57.53;100670.09;4970110;28;20035;-44
2022/04/27 04:35:43;;;;;;;0.30;0.20;;;;;;;18.54;57.28;100676.19;4977411;28;20026;-43
2022/04/27 04:38:09;;;;;;;1.60;0.10;;;;;;;18.54;57.42;100678.81;4989537;28;20477;-43
2022/04/27 04:40:34;;;;;;;0.45;0.10;;;;;;;18.53;57.26;100677.19;4989679;28;20034;-44
2022/04/27 04:43:01;;;;;;;0.77;0.17;;;;;;;18.52;57.28;100678.19;4989155;28;20048;-42
2022/04/27 04:45:26;;;;;;;0.50;0.30;;;;;;;18.53;57.28;100677.19;4988930;28;20138;-42
2022/04/27 04:47:52;;;;;;;0.70;0.20;;;;;;;18.52;57.35;100691.38;4989805;28;20525;-42
2022/04/27 04:50:18;;;;;;;0.82;0.20;;;;;;;18.51;57.22;100680.00;4988971;28;20042;-45
2022/04/27 04:52:46;;;;;;;0.95;0.20;;;;;;;18.51;57.19;100679.19;4989230;28;20489;-44
2022/04/27 04:55:12;;;;;;;0.73;0.20;;;;;;;18.50;57.19;100681.03;4988811;28;20477;-44
2022/04/27 04:57:37;;;;;;;0.32;0.20;;;;;;;18.50;57.16;100682.84;4989012;28;20026;-43
2022/04/27 05:00:05;;;;;;;0.35;0.10;;;;;;;18.50;57.05;100688.13;4989144;28;20038;-45
2022/04/27 05:02:33;;;;;;;0.20;0.10;;;;;;;18.49;57.15;100679.38;4986489;28;20030;-42
2022/04/27 05:05:02;;;;;;;1.05;0.10;;;;;;;18.49;56.97;100676.75;4988313;28;20022;-42
2022/04/27 05:07:31;;;;;;;0.40;0.10;;;;;;;18.49;56.99;100689.94;4986378;28;20048;-42
2022/04/27 05:09:57;;;;;;;0.63;0.15;;;;;;;18.51;56.96;100684.47;4987876;28;20117;-43
2022/04/27 05:12:23;;;;;;;0.60;0.13;;;;;;;18.51;56.94;100687.94;4984727;28;20383;-43
2022/04/27 05:14:49;;;;;;;0.40;0.10;;;;;;;18.52;56.90;100686.09;4987146;28;20041;-42
2022/04/27 05:17:15;;;;;;;0.45;0.10;;;;;;;18.53;56.76;100685.91;4987850;28;20029;-43
2022/04/27 05:19:40;;;;;;;0.32;0.10;;;;;;;18.53;56.78;100695.66;4988071;28;20444;-43
2022/04/27 05:22:05;;;;;;;0.57;0.10;;;;;;;18.53;56.78;100688.56;4986144;28;20034;-45
2022/04/27 05:24:31;;;;;;;0.30;0.10;;;;;;;18.55;56.71;100698.91;4988050;28;20034;-43
2022/04/27 05:26:56;;;;;;;0.30;0.10;;;;;;;18.54;56.73;100700.75;4988254;28;20058;-44
2022/04/27 05:32:06;;;;;;;0.35;0.10;;;;;;;18.56;56.77;100703.19;4986454;28;20046;-44
2022/04/27 05:34:33;;;;;;;0.10;0.00;;;;;;;18.56;56.64;100703.19;4988336;28;20033;-43
2022/04/27 05:37:00;;;;;;;0.20;0.10;;;;;;;18.56;56.56;100713.75;4986849;28;20113;-45
2022/04/27 05:39:26;;;;;;;0.25;0.10;;;;;;;18.55;56.66;100720.03;4988573;28;20133;-45
2022/04/27 05:41:53;;;;;;;0.40;0.10;;;;;;;18.55;56.64;100714.75;4986957;28;20102;-46
2022/04/27 05:44:21;;;;;;;0.30;0.10;;;;;;;18.56;56.47;100711.09;4987186;28;20030;-43
2022/04/27 05:46:46;;;;;;;0.10;0.10;;;;;;;18.54;56.38;100713.13;4987397;28;20541;-42
2022/04/27 05:49:12;;;;;;;0.20;0.10;;;;;;;18.53;56.53;100714.94;4987012;28;20140;-42
2022/04/27 05:51:38;;;;;;;0.30;0.10;;;;;;;18.54;56.41;100713.13;4986911;28;20087;-42
2022/04/27 05:54:03;;;;;;;0.20;0.10;;;;;;;18.53;56.44;100711.47;4987970;28;20053;-43
2022/04/27 05:56:29;;;;;;;0.40;0.10;;;;;;;18.52;56.60;100715.94;4987201;28;20081;-46
2022/04/27 05:58:55;;;;;;;0.10;0.10;;;;;;;18.53;56.47;100719.41;4987521;28;20575;-43
2022/04/27 06:01:20;;;;;;;0.20;0.10;;;;;;;18.53;56.47;100711.47;4985541;28;20348;-44
2022/04/27 06:03:46;;;;;;;0.20;0.10;;;;;;;18.52;56.47;100709.84;4986632;28;20552;-43
2022/04/27 06:06:11;;;;;;;0.10;0.10;;;;;;;18.50;56.35;100703.94;4986666;28;20116;-44
2022/04/27 06:08:37;;;;;;;1.17;0.10;;;;;;;18.50;56.55;100710.03;4984314;28;20440;-44
2022/04/27 06:11:03;;;;;;;0.60;0.10;;;;;;;18.51;56.34;100708.22;4986771;28;20065;-42
2022/04/27 06:13:29;;;;;;;0.28;0.10;;;;;;;18.50;56.39;100704.75;4987617;28;20491;-42
2022/04/27 06:15:54;;;;;;;0.40;0.10;;;;;;;18.50;56.57;100698.66;4981657;28;20030;-42
2022/04/27 06:18:20;;;;;;;1.00;0.10;;;;;;;18.50;56.54;100712.69;4986266;28;20034;-42
2022/04/27 06:20:45;;;;;;;0.57;0.10;;;;;;;18.49;56.73;100697.84;4986424;28;20041;-42
2022/04/27 06:23:13;;;;;;;0.50;0.10;;;;;;;18.50;56.54;100714.50;4986691;28;20030;-42
2022/04/27 06:25:40;;;;;;;0.82;0.10;;;;;;;18.50;56.60;100709.22;4985861;28;20442;-42
2022/04/27 06:28:07;;;;;;;0.30;0.10;;;;;;;18.49;56.60;100716.31;4987288;28;20093;-41
2022/04/27 06:30:35;;;;;;;0.55;0.10;;;;;;;18.49;56.63;100724.25;4985424;28;20041;-44
2022/04/27 06:33:00;;;;;;;0.40;0.00;;;;;;;18.49;56.83;100721.59;4985873;28;20030;-43
2022/04/27 06:35:26;;;;;;;3.03;0.10;;;;;;;18.51;56.90;100721.41;4985815;28;20040;-44
2022/04/27 06:37:52;;;;;;;0.30;0.05;;;;;;;18.50;56.82;100725.06;4985246;28;20033;-42
2022/04/27 06:40:17;;;;;;;0.13;0.10;;;;;;;18.50;56.88;100725.06;4987543;28;20069;-42
2022/04/27 06:42:44;;;;;;;1.52;0.10;;;;;;;18.50;57.00;100731.16;4985782;28;20032;-45
2022/04/27 06:45:09;;;;;;;1.35;0.00;;;;;;;18.51;57.13;100737.25;4986210;28;20030;-44
2022/04/27 06:47:35;;;;;;;1.48;0.10;;;;;;;18.51;57.23;100737.25;4987245;28;20085;-41
2022/04/27 06:50:01;;;;;;;1.50;0.10;;;;;;;18.49;57.26;100733.97;4982932;28;20401;-42
2022/04/27 06:52:26;;;;;;;0.68;0.08;;;;;;;18.49;57.38;100731.34;4984391;28;20034;-42
2022/04/27 06:54:52;;;;;;;2.65;0.10;;;;;;;18.49;57.09;100733.97;4984680;28;20114;-45
2022/04/27 06:57:17;;;;;;;0.28;0.10;;;;;;;18.47;57.16;100731.53;4986423;28;20138;-42
2022/04/27 06:59:43;;;;;;;0.35;0.10;;;;;;;18.49;56.89;100736.63;4985587;28;20213;-46
2022/04/27 07:02:10;;;;;;;0.20;0.10;;;;;;;18.48;57.17;100740.25;4987269;28;20030;-44
2022/04/27 07:04:36;;;;;;;2.33;0.10;;;;;;;18.47;56.94;100744.72;4984674;28;20097;-43
2022/04/27 07:07:03;;;;;;;0.30;0.10;;;;;;;18.47;56.94;100739.44;4983891;28;20057;-43
2022/04/27 07:09:30;;;;;;;1.20;0.10;;;;;;;18.48;56.82;100740.25;4985147;28;20019;-44
2022/04/27 07:11:55;;;;;;;0.70;0.10;;;;;;;18.48;57.32;100734.97;4984824;28;20406;-46
2022/04/27 07:14:21;;;;;;;2.03;0.10;;;;;;;18.53;57.94;100741.31;4985605;28;20034;-44
2022/04/27 07:16:47;;;;;;;3.20;0.47;;;;;;;18.62;59.19;100749.97;4983985;28;20113;-42
2022/04/27 07:19:13;;;;;;;1.27;0.28;;;;;;;18.62;58.97;100739.41;4984828;28;20052;-45
2022/04/27 07:21:39;;;;;;;0.20;0.10;;;;;;;18.61;58.82;100743.06;4985751;28;20489;-42
2022/04/27 07:24:05;;;;;;;4.85;0.20;;;;;;;18.59;58.31;100745.03;4984472;28;20554;-42
2022/04/27 07:26:31;;;;;;;2.22;0.10;;;;;;;18.58;58.29;100743.41;4986090;28;20433;-40
2022/04/27 07:28:57;;;;;;;0.30;0.10;;;;;;;18.56;58.17;100756.78;4984111;28;20026;-41
2022/04/27 07:31:23;;;;;;;1.95;0.30;;;;;;;18.58;58.00;100748.69;4985869;28;20084;-39
2022/04/27 07:33:49;;;;;;;4.32;0.10;;;;;;;18.59;57.80;100755.59;4990813;22;20057;-39
2022/04/27 07:36:14;;;;;;;1.98;0.10;;;;;;;18.60;57.77;100761.69;4983189;28;20027;-44
2022/04/27 07:38:40;;;;;;;0.93;0.15;;;;;;;18.59;57.78;100758.22;4986266;28;20057;-45
2022/04/27 07:41:07;;;;;;;3.75;0.40;;;;;;;18.62;57.95;100759.69;4989326;28;20030;-41
2022/04/27 07:43:33;;;;;;;0.98;0.20;;;;;;;18.64;58.39;100766.41;4988335;28;20032;-42
2022/04/27 07:45:58;;;;;;;7.13;0.82;;;;;;;18.69;58.50;100761.41;4988931;28;20026;-41
2022/04/27 07:48:24;;;;;;;24.65;0.63;;;;;;;18.75;59.29;100773.84;4986232;28;20441;-43
2022/04/27 07:50:49;;;;;;;4.20;0.20;;;;;;;18.76;59.10;100782.56;4984973;28;20034;-40
2022/04/27 07:53:14;;;;;;;0.88;0.10;;;;;;;18.73;59.04;100778.47;4986097;28;20030;-45
2022/04/27 07:55:40;;;;;;;2.30;0.13;;;;;;;18.72;58.72;100786.59;4987986;28;20038;-48
2022/04/27 07:58:05;;;;;;;1.98;0.40;;;;;;;18.69;58.79;100785.16;4988451;28;20034;-40
2022/04/27 08:00:31;;;;;;;1.25;0.10;;;;;;;18.68;58.93;100786.16;4990081;28;20026;-46
2022/04/27 08:02:57;;;;;;;3.10;0.10;;;;;;;18.66;58.89;100792.63;4989674;28;20027;-46
2022/04/27 08:05:23;;;;;;;2.97;0.10;;;;;;;18.68;59.08;100798.53;4984391;28;20535;-45
2022/04/27 08:07:48;;;;;;;4.25;0.20;;;;;;;18.68;58.87;100796.72;4988660;28;20026;-44
2022/04/27 08:10:19;;;;;;;4.68;0.20;;;;;;;18.67;58.74;100792.44;4987749;28;20378;-44
2022/04/27 08:12:52;;;;;;;0.85;0.13;;;;;;;18.67;58.16;100802.19;4988508;28;20034;-41
2022/04/27 08:15:19;;;;;;;5.18;0.20;;;;;;;18.66;58.11;100797.91;4990073;28;20489;-41
2022/04/27 08:17:59;;;;;;;3.85;0.10;;;;;;;18.62;58.06;100797.47;4988752;28;20026;-47
2022/04/27 08:23:13;;;;;;;1.85;0.10;;;;;;;18.63;57.74;100801.72;4988190;28;20092;-44
2022/04/27 08:25:39;;;;;;;2.20;0.20;;;;;;;18.62;57.79;100802.75;4986416;28;20145;-43
2022/04/27 08:28:06;;;;;;;3.70;0.10;;;;;;;18.63;57.46;100799.09;4988101;28;20030;-43
2022/04/27 08:30:37;;;;;;;0.30;0.00;;;;;;;18.62;57.42;100808.00;4989197;28;20234;-42
2022/04/27 08:33:03;;;;;;;0.80;0.10;;;;;;;18.62;57.55;100804.56;4988609;28;20409;-46
2022/04/27 08:35:31;;;;;;;0.25;0.10;;;;;;;18.61;57.35;100801.09;4987943;28;20597;-45
2022/04/27 08:37:56;;;;;;;4.40;0.10;;;;;;;18.62;57.39;100804.56;4988991;28;20286;-47
2022/04/27 08:40:22;;;;;;;0.43;0.10;;;;;;;18.60;57.44;100799.47;4989268;28;20144;-47
2022/04/27 08:42:49;;;;;;;1.65;0.10;;;;;;;18.61;57.20;100809.03;4988008;28;20502;-46
2022/04/27 08:45:16;;;;;;;3.45;0.43;;;;;;;18.60;56.96;100804.75;4986105;28;20518;-46
2022/04/27 08:47:41;;;;;;;0.70;0.10;;;;;;;18.61;57.10;100811.66;4987091;28;20145;-44
2022/04/27 08:50:14;;;;;;;1.65;0.10;;;;;;;18.61;57.77;100813.47;4987782;28;20037;-46
2022/04/27 08:52:41;;;;;;;2.35;0.10;;;;;;;18.61;57.29;100811.66;4982935;28;20129;-46
2022/04/27 08:55:08;;;;;;;1.55;0.10;;;;;;;18.61;56.65;100811.66;4985645;28;20197;-46
2022/04/27 08:57:34;;;;;;;2.38;0.08;;;;;;;18.60;56.49;100817.09;4984307;28;20030;-43
2022/04/27 08:59:59;;;;;;;1.58;0.13;;;;;;;18.64;57.24;100821.03;4980890;28;20263;-43
2022/04/27 09:02:28;;;;;;;4.60;1.55;;;;;;;18.69;59.21;100816.81;4982141;28;20034;-43
2022/04/27 09:05:14;;;;;;;2.55;0.40;;;;;;;18.75;60.13;100825.81;4983250;28;20073;-44
2022/04/27 09:07:50;;;;;;;0.70;0.22;;;;;;;18.72;59.13;100813.81;4986819;28;20497;-50
2022/04/27 09:10:21;;;;;;;3.65;0.20;;;;;;;18.72;58.56;100813.81;4984028;28;20030;-46
2022/04/27 09:12:55;;;;;;;3.05;0.20;;;;;;;18.71;58.32;100814.00;4986164;28;20046;-45
2022/04/27 09:15:26;;;;;;;1.75;0.10;;;;;;;18.69;57.94;100810.72;4988066;28;20399;-45
2022/04/27 09:20:52;;;;;;;0.50;0.10;;;;;;;18.64;57.63;100806.00;4986568;28;20049;-45
2022/04/27 09:23:42;;;;;;;1.75;0.10;;;;;;;18.62;57.25;100808.00;4988226;28;20684;-46
2022/04/27 09:26:19;;;;;;;1.02;0.10;;;;;;;18.60;57.15;100804.75;4987968;28;20034;-47
2022/04/27 09:28:55;;;;;;;0.43;0.10;;;;;;;18.61;56.85;100811.66;4988524;28;20076;-47
2022/04/27 09:31:34;;;;;;;1.58;0.10;;;;;;;18.59;56.96;100808.38;4988584;28;20031;-45
2022/04/27 09:34:27;;;;;;;4.55;0.10;;;;;;;18.61;56.92;100811.66;4979958;28;20054;-46
2022/04/27 09:37:00;;;;;;;1.63;0.30;;;;;;;18.60;56.73;100817.09;4982974;28;20145;-45
2022/04/27 09:39:26;;;;;;;1.48;0.10;;;;;;;18.61;56.47;100810.84;5001766;28;20264;-44
2022/04/27 09:41:51;;;;;;;1.25;0.20;;;;;;;18.60;56.08;100810.03;4987117;28;20485;-48
2022/04/27 09:44:38;;;;;;;1.77;0.10;;;;;;;18.61;55.83;100810.84;4984820;28;20049;-44
2022/04/27 09:47:04;;;;;;;1.27;0.10;;;;;;;18.62;55.69;100804.56;4980163;28;20034;-43
2022/04/27 09:49:31;;;;;;;0.65;0.10;;;;;;;18.63;55.45;100809.66;4985028;28;20026;-46
2022/04/27 09:51:58;;;;;;;1.60;0.10;;;;;;;18.65;55.49;100812.91;4985520;28;20045;-49
2022/04/27 09:54:24;;;;;;;0.43;0.10;;;;;;;18.66;55.35;100809.28;4985676;28;20026;-49
2022/04/27 09:56:50;;;;;;;0.40;0.10;;;;;;;18.67;55.17;100812.72;4984517;28;20050;-44
2022/04/27 09:59:18;;;;;;;0.47;0.10;;;;;;;18.67;55.37;100816.19;4986058;28;20050;-45
2022/04/27 10:01:45;;;;;;;0.30;0.10;;;;;;;18.68;55.26;100804.63;4987011;28;20058;-42
2022/04/27 10:04:12;;;;;;;3.97;0.20;;;;;;;18.70;55.19;100809.72;4987187;28;20134;-44
2022/04/27 10:06:37;;;;;;;0.60;0.10;;;;;;;18.70;55.18;100804.44;4984088;28;20094;-47
2022/04/27 10:09:04;;;;;;;0.82;0.00;;;;;;;18.70;55.27;100802.63;4983650;28;20397;-42
2022/04/27 10:11:32;;;;;;;2.40;0.10;;;;;;;18.69;55.37;100800.97;4982227;28;20557;-44
2022/04/27 10:13:58;;;;;;;2.95;0.30;;;;;;;18.69;55.43;100810.72;4984311;28;20117;-45
2022/04/27 10:16:25;;;;;;;0.38;0.10;;;;;;;18.68;55.23;100804.63;4986046;28;20117;-45
2022/04/27 10:18:51;;;;;;;0.30;0.10;;;;;;;18.68;54.93;100807.25;4984960;28;20038;-47
2022/04/27 10:21:43;;;;;;;0.52;0.10;;;;;;;18.65;54.25;100801.53;4982018;28;20031;-42
2022/04/27 10:24:10;;;;;;;1.27;0.40;;;;;;;18.65;54.34;100807.63;4987201;28;20046;-43
2022/04/27 10:26:35;;;;;;;1.15;0.20;;;;;;;18.64;53.94;100806.00;4986550;28;20065;-56
2022/04/27 10:29:09;;;;;;;5.15;0.57;;;;;;;18.65;52.84;100797.09;4986706;28;20034;-43
2022/04/27 10:31:42;;;;;;;0.85;0.20;;;;;;;18.68;52.88;100796.72;4984484;28;20249;-43
2022/04/27 10:34:17;;;;;;;3.97;0.20;;;;;;;18.73;53.21;100790.88;4985188;28;20342;-44
2022/04/27 10:36:47;;;;;;;0.88;0.30;;;;;;;18.81;52.46;100790.75;4983667;28;20045;-45
2022/04/27 10:39:12;;;;;;;1.85;0.28;;;;;;;18.89;53.09;100788.78;4735567;22;20136;-73
2022/04/27 10:41:57;;;;;;;6.03;1.33;;;;;;;19.12;62.48;100787.72;4976805;28;20030;-75
2022/04/27 10:44:47;;;;;;;3.88;0.60;;;;;;;19.34;65.24;100784.03;4983203;28;20466;-75
2022/04/27 10:47:20;;;;;;;4.63;0.93;;;;;;;19.51;67.98;100793.28;4983682;28;20105;-74
2022/04/27 10:49:50;;;;;;;2.55;0.52;;;;;;;19.66;68.75;100792.34;4978705;28;20541;-73
2022/04/27 10:52:22;;;;;;;1.67;0.47;;;;;;;19.74;67.78;100787.72;4981649;28;20038;-73
2022/04/27 10:54:47;;;;;;;1.65;0.30;;;;;;;19.66;64.46;100785.22;4985835;28;20035;-75
2022/04/27 10:57:19;;;;;;;1.95;0.30;;;;;;;19.54;61.85;100787.59;4982666;28;20049;-73
2022/04/27 11:00:05;;;;;;;2.08;0.20;;;;;;;19.46;60.73;100782.44;4982736;28;20034;-74
2022/04/27 11:02:40;;;;;;;0.73;0.20;;;;;;;19.39;60.12;100784.22;4979436;28;20566;-75
2022/04/27 11:05:20;;;;;;;3.67;0.25;;;;;;;19.32;59.17;100783.41;4985188;28;20316;-74
2022/04/27 11:07:58;;;;;;;5.13;0.20;;;;;;;19.31;58.82;100775.66;4983337;28;20041;-75
2022/04/27 11:10:25;;;;;;;2.78;0.15;;;;;;;19.28;58.34;100784.78;4985743;28;20038;-73
2022/04/27 11:12:52;;;;;;;1.33;0.20;;;;;;;19.27;57.65;100774.41;4987928;28;20026;-74
2022/04/27 11:15:23;;;;;;;5.45;0.20;;;;;;;19.21;57.09;100784.75;4985288;28;20433;-77
2022/04/27 11:17:57;;;;;;;5.07;0.30;;;;;;;19.16;56.34;100773.94;4985808;28;20482;-72
2022/04/27 11:20:23;;;;;;;1.65;0.10;;;;;;;19.14;56.21;100775.13;4985483;28;20034;-72
2022/04/27 11:22:49;;;;;;;36.25;2.17;;;;;;;19.14;56.74;100775.13;4988020;28;20113;-74
2022/04/27 11:25:26;;;;;;;9.02;0.82;;;;;;;19.12;57.31;100777.16;4984969;28;20117;-74
2022/04/27 11:27:52;;;;;;;6.32;0.70;;;;;;;19.13;57.79;100776.16;4987209;28;20034;-74
2022/04/27 11:30:18;;;;;;;5.63;0.43;;;;;;;19.11;56.69;100776.34;4985988;28;20026;-73
2022/04/27 11:32:48;;;;;;;1.67;0.40;;;;;;;19.07;56.26;100779.56;4984146;28;20054;-73
2022/04/27 11:35:15;;;;;;;3.10;0.50;;;;;;;19.07;55.48;100779.56;4991260;28;20316;-74
2022/04/27 11:37:40;;;;;;;2.00;0.30;;;;;;;19.03;54.59;100773.03;4987996;28;20056;-72
2022/04/27 11:40:14;;;;;;;2.03;0.30;;;;;;;19.00;54.03;100783.97;4987673;28;20038;-72
2022/04/27 11:42:48;;;;;;;1.38;0.32;;;;;;;18.99;53.52;100782.34;4983124;28;20026;-74